sensor_id;sensor_type;location;lat;lon;timestamp;P1;durP1;ratioP1;P2;durP2;ratioP2
66927;SDS011;59882;45.624;11.698;2023-06-10T00:00:12;14.90;;;13.40;;
66927;SDS011;59882;45.624;11.698;2023-06-10T00:02:40;13.98;;;12.40;;
66927;SDS011;59882;45.624;11.698;2023-06-10T00:05:07;13.27;;;11.98;;
66927;SDS011;59882;45.624;11.698;2023-06-10T00:07:33;13.57;;;12.05;;
66927;SDS011;59882;45.624;11.698;2023-06-10T00:10:03;13.00;;;11.60;;
66927;SDS011;59882;45.624;11.698;2023-06-10T00:12:30;14.38;;;11.95;;
66927;SDS011;59882;45.624;11.698;2023-06-10T00:15:06;13.52;;;11.65;;
66927;SDS011;59882;45.624;11.698;2023-06-10T00:17:32;13.30;;;11.95;;
66927;SDS011;59882;45.624;11.698;2023-06-10T00:19:58;14.57;;;13.10;;
66927;SDS011;59882;45.624;11.698;2023-06-10T00:22:24;13.57;;;12.20;;
66927;SDS011;59882;45.624;11.698;2023-06-10T00:24:54;13.05;;;11.75;;
66927;SDS011;59882;45.624;11.698;2023-06-10T00:27:21;15.00;;;10.60;;
66927;SDS011;59882;45.624;11.698;2023-06-10T00:29:47;13.05;;;11.75;;
66927;SDS011;59882;45.624;11.698;2023-06-10T00:32:12;13.07;;;11.67;;
66927;SDS011;59882;45.624;11.698;2023-06-10T00:34:38;14.18;;;12.77;;
66927;SDS011;59882;45.624;11.698;2023-06-10T00:37:04;14.20;;;12.80;;
66927;SDS011;59882;45.624;11.698;2023-06-10T00:39:29;13.70;;;12.30;;
66927;SDS011;59882;45.624;11.698;2023-06-10T00:41:55;14.80;;;13.27;;
66927;SDS011;59882;45.624;11.698;2023-06-10T00:44:21;14.07;;;12.57;;
66927;SDS011;59882;45.624;11.698;2023-06-10T00:46:46;16.20;;;13.30;;
66927;SDS011;59882;45.624;11.698;2023-06-10T00:49:12;13.77;;;12.38;;
66927;SDS011;59882;45.624;11.698;2023-06-10T00:51:38;14.33;;;11.90;;
66927;SDS011;59882;45.624;11.698;2023-06-10T00:54:04;14.02;;;12.35;;
66927;SDS011;59882;45.624;11.698;2023-06-10T00:56:32;14.85;;;13.05;;
66927;SDS011;59882;45.624;11.698;2023-06-10T00:59:00;14.20;;;12.70;;
66927;SDS011;59882;45.624;11.698;2023-06-10T01:01:25;14.00;;;12.43;;
66927;SDS011;59882;45.624;11.698;2023-06-10T01:03:51;15.27;;;13.13;;
66927;SDS011;59882;45.624;11.698;2023-06-10T01:06:30;14.13;;;12.73;;
66927;SDS011;59882;45.624;11.698;2023-06-10T01:11:47;21.00;;;18.90;;
66927;SDS011;59882;45.624;11.698;2023-06-10T01:14:20;22.48;;;20.27;;
66927;SDS011;59882;45.624;11.698;2023-06-10T01:16:47;22.92;;;20.63;;
66927;SDS011;59882;45.624;11.698;2023-06-10T01:19:13;20.50;;;18.43;;
66927;SDS011;59882;45.624;11.698;2023-06-10T01:21:42;21.00;;;18.90;;
66927;SDS011;59882;45.624;11.698;2023-06-10T01:24:13;22.40;;;20.20;;
66927;SDS011;59882;45.624;11.698;2023-06-10T01:26:39;22.05;;;19.75;;
66927;SDS011;59882;45.624;11.698;2023-06-10T01:29:11;21.13;;;19.05;;
66927;SDS011;59882;45.624;11.698;2023-06-10T01:31:42;20.30;;;18.20;;
66927;SDS011;59882;45.624;11.698;2023-06-10T01:34:19;17.95;;;16.15;;
66927;SDS011;59882;45.624;11.698;2023-06-10T01:36:46;21.10;;;18.90;;
66927;SDS011;59882;45.624;11.698;2023-06-10T01:39:14;21.13;;;19.02;;
66927;SDS011;59882;45.624;11.698;2023-06-10T01:41:41;19.95;;;18.05;;
66927;SDS011;59882;45.624;11.698;2023-06-10T01:44:07;21.00;;;18.80;;
66927;SDS011;59882;45.624;11.698;2023-06-10T01:46:33;19.95;;;17.98;;
66927;SDS011;59882;45.624;11.698;2023-06-10T01:48:59;21.27;;;18.27;;
66927;SDS011;59882;45.624;11.698;2023-06-10T01:51:24;21.35;;;19.10;;
66927;SDS011;59882;45.624;11.698;2023-06-10T01:53:50;23.53;;;21.07;;
66927;SDS011;59882;45.624;11.698;2023-06-10T01:56:16;23.67;;;21.27;;
66927;SDS011;59882;45.624;11.698;2023-06-10T01:58:44;21.70;;;19.20;;
66927;SDS011;59882;45.624;11.698;2023-06-10T02:01:13;23.50;;;21.02;;
66927;SDS011;59882;45.624;11.698;2023-06-10T02:03:39;23.17;;;20.77;;
66927;SDS011;59882;45.624;11.698;2023-06-10T02:06:05;23.95;;;21.45;;
66927;SDS011;59882;45.624;11.698;2023-06-10T02:08:30;22.73;;;20.50;;
66927;SDS011;59882;45.624;11.698;2023-06-10T02:10:56;21.45;;;19.35;;
66927;SDS011;59882;45.624;11.698;2023-06-10T02:13:22;24.43;;;21.80;;
66927;SDS011;59882;45.624;11.698;2023-06-10T02:15:47;21.37;;;19.27;;
66927;SDS011;59882;45.624;11.698;2023-06-10T02:18:13;22.48;;;20.13;;
66927;SDS011;59882;45.624;11.698;2023-06-10T02:20:38;22.47;;;20.07;;
66927;SDS011;59882;45.624;11.698;2023-06-10T02:23:04;20.85;;;18.75;;
66927;SDS011;59882;45.624;11.698;2023-06-10T02:25:30;23.87;;;21.43;;
66927;SDS011;59882;45.624;11.698;2023-06-10T02:27:56;22.70;;;19.48;;
66927;SDS011;59882;45.624;11.698;2023-06-10T02:30:21;21.77;;;19.43;;
66927;SDS011;59882;45.624;11.698;2023-06-10T02:32:47;20.98;;;18.83;;
66927;SDS011;59882;45.624;11.698;2023-06-10T02:35:16;22.47;;;20.03;;
66927;SDS011;59882;45.624;11.698;2023-06-10T02:37:42;22.90;;;20.60;;
66927;SDS011;59882;45.624;11.698;2023-06-10T02:40:08;23.92;;;21.52;;
66927;SDS011;59882;45.624;11.698;2023-06-10T02:42:35;21.52;;;18.55;;
66927;SDS011;59882;45.624;11.698;2023-06-10T02:45:01;22.33;;;20.08;;
66927;SDS011;59882;45.624;11.698;2023-06-10T02:47:27;26.13;;;20.13;;
66927;SDS011;59882;45.624;11.698;2023-06-10T02:49:52;21.98;;;19.70;;
66927;SDS011;59882;45.624;11.698;2023-06-10T02:52:18;19.83;;;17.73;;
66927;SDS011;59882;45.624;11.698;2023-06-10T02:54:44;19.07;;;17.07;;
66927;SDS011;59882;45.624;11.698;2023-06-10T02:57:10;22.03;;;19.43;;
66927;SDS011;59882;45.624;11.698;2023-06-10T02:59:36;19.88;;;17.77;;
66927;SDS011;59882;45.624;11.698;2023-06-10T03:02:02;22.93;;;18.93;;
66927;SDS011;59882;45.624;11.698;2023-06-10T03:04:27;22.70;;;20.30;;
66927;SDS011;59882;45.624;11.698;2023-06-10T03:06:54;20.30;;;17.83;;
66927;SDS011;59882;45.624;11.698;2023-06-10T03:09:20;20.90;;;18.30;;
66927;SDS011;59882;45.624;11.698;2023-06-10T03:11:45;19.85;;;17.80;;
66927;SDS011;59882;45.624;11.698;2023-06-10T03:14:11;22.03;;;19.73;;
66927;SDS011;59882;45.624;11.698;2023-06-10T03:16:37;22.20;;;19.90;;
66927;SDS011;59882;45.624;11.698;2023-06-10T03:19:05;21.98;;;19.23;;
66927;SDS011;59882;45.624;11.698;2023-06-10T03:21:32;23.13;;;20.80;;
66927;SDS011;59882;45.624;11.698;2023-06-10T03:23:59;23.80;;;21.40;;
66927;SDS011;59882;45.624;11.698;2023-06-10T03:26:25;23.05;;;20.65;;
66927;SDS011;59882;45.624;11.698;2023-06-10T03:28:52;21.50;;;19.30;;
66927;SDS011;59882;45.624;11.698;2023-06-10T03:31:18;21.75;;;19.55;;
66927;SDS011;59882;45.624;11.698;2023-06-10T03:33:43;21.57;;;19.23;;
66927;SDS011;59882;45.624;11.698;2023-06-10T03:36:09;21.88;;;18.77;;
66927;SDS011;59882;45.624;11.698;2023-06-10T03:38:35;22.52;;;20.10;;
66927;SDS011;59882;45.624;11.698;2023-06-10T03:41:01;21.60;;;19.43;;
66927;SDS011;59882;45.624;11.698;2023-06-10T03:43:27;22.60;;;20.33;;
66927;SDS011;59882;45.624;11.698;2023-06-10T03:45:53;22.13;;;19.57;;
66927;SDS011;59882;45.624;11.698;2023-06-10T03:48:19;22.00;;;19.60;;
66927;SDS011;59882;45.624;11.698;2023-06-10T03:50:44;21.13;;;18.93;;
66927;SDS011;59882;45.624;11.698;2023-06-10T03:53:12;22.43;;;18.60;;
66927;SDS011;59882;45.624;11.698;2023-06-10T03:55:38;22.08;;;19.80;;
66927;SDS011;59882;45.624;11.698;2023-06-10T03:58:03;20.93;;;18.73;;
66927;SDS011;59882;45.624;11.698;2023-06-10T04:00:29;20.60;;;18.40;;
66927;SDS011;59882;45.624;11.698;2023-06-10T04:02:55;21.43;;;19.13;;
66927;SDS011;59882;45.624;11.698;2023-06-10T04:05:23;23.05;;;20.67;;
66927;SDS011;59882;45.624;11.698;2023-06-10T04:07:48;22.80;;;20.50;;
66927;SDS011;59882;45.624;11.698;2023-06-10T04:10:15;22.92;;;20.23;;
66927;SDS011;59882;45.624;11.698;2023-06-10T04:12:41;23.60;;;21.10;;
66927;SDS011;59882;45.624;11.698;2023-06-10T04:15:07;23.60;;;21.13;;
66927;SDS011;59882;45.624;11.698;2023-06-10T04:17:33;25.35;;;22.65;;
66927;SDS011;59882;45.624;11.698;2023-06-10T04:19:59;24.53;;;21.90;;
66927;SDS011;59882;45.624;11.698;2023-06-10T04:22:25;25.40;;;22.70;;
66927;SDS011;59882;45.624;11.698;2023-06-10T04:24:51;25.23;;;22.45;;
66927;SDS011;59882;45.624;11.698;2023-06-10T04:27:17;25.42;;;22.83;;
66927;SDS011;59882;45.624;11.698;2023-06-10T04:29:43;25.90;;;23.20;;
66927;SDS011;59882;45.624;11.698;2023-06-10T04:32:09;24.93;;;22.33;;
66927;SDS011;59882;45.624;11.698;2023-06-10T04:34:36;23.23;;;20.83;;
66927;SDS011;59882;45.624;11.698;2023-06-10T04:37:04;25.13;;;22.52;;
66927;SDS011;59882;45.624;11.698;2023-06-10T04:39:30;25.90;;;23.10;;
66927;SDS011;59882;45.624;11.698;2023-06-10T04:41:55;24.17;;;21.65;;
66927;SDS011;59882;45.624;11.698;2023-06-10T04:44:21;24.33;;;21.53;;
66927;SDS011;59882;45.624;11.698;2023-06-10T04:46:46;23.08;;;20.70;;
66927;SDS011;59882;45.624;11.698;2023-06-10T04:49:13;24.63;;;20.20;;
66927;SDS011;59882;45.624;11.698;2023-06-10T04:51:39;23.97;;;21.47;;
66927;SDS011;59882;45.624;11.698;2023-06-10T04:54:05;24.08;;;21.63;;
66927;SDS011;59882;45.624;11.698;2023-06-10T04:56:31;25.35;;;22.75;;
66927;SDS011;59882;45.624;11.698;2023-06-10T04:58:57;24.93;;;22.20;;
66927;SDS011;59882;45.624;11.698;2023-06-10T05:01:23;24.83;;;22.27;;
66927;SDS011;59882;45.624;11.698;2023-06-10T05:03:49;24.40;;;21.90;;
66927;SDS011;59882;45.624;11.698;2023-06-10T05:06:14;26.60;;;23.60;;
66927;SDS011;59882;45.624;11.698;2023-06-10T05:08:40;26.90;;;24.20;;
66927;SDS011;59882;45.624;11.698;2023-06-10T05:11:05;24.90;;;22.30;;
66927;SDS011;59882;45.624;11.698;2023-06-10T05:13:31;26.03;;;22.33;;
66927;SDS011;59882;45.624;11.698;2023-06-10T05:15:57;25.30;;;22.45;;
66927;SDS011;59882;45.624;11.698;2023-06-10T05:18:23;24.35;;;21.75;;
66927;SDS011;59882;45.624;11.698;2023-06-10T05:20:49;23.63;;;21.13;;
66927;SDS011;59882;45.624;11.698;2023-06-10T05:23:15;23.57;;;21.03;;
66927;SDS011;59882;45.624;11.698;2023-06-10T05:25:40;23.88;;;21.33;;
66927;SDS011;59882;45.624;11.698;2023-06-10T05:28:07;23.67;;;20.80;;
66927;SDS011;59882;45.624;11.698;2023-06-10T05:30:38;19.80;;;17.75;;
66927;SDS011;59882;45.624;11.698;2023-06-10T05:33:04;26.65;;;19.52;;
66927;SDS011;59882;45.624;11.698;2023-06-10T05:35:30;21.55;;;19.30;;
66927;SDS011;59882;45.624;11.698;2023-06-10T05:37:56;22.48;;;20.17;;
66927;SDS011;59882;45.624;11.698;2023-06-10T05:40:21;23.40;;;20.23;;
66927;SDS011;59882;45.624;11.698;2023-06-10T05:42:47;24.53;;;20.77;;
66927;SDS011;59882;45.624;11.698;2023-06-10T05:45:12;23.33;;;19.87;;
66927;SDS011;59882;45.624;11.698;2023-06-10T05:47:38;24.03;;;20.60;;
66927;SDS011;59882;45.624;11.698;2023-06-10T05:50:04;22.58;;;19.67;;
66927;SDS011;59882;45.624;11.698;2023-06-10T05:52:34;25.90;;;19.80;;
66927;SDS011;59882;45.624;11.698;2023-06-10T05:55:00;26.43;;;19.57;;
66927;SDS011;59882;45.624;11.698;2023-06-10T05:57:25;20.65;;;17.52;;
66927;SDS011;59882;45.624;11.698;2023-06-10T05:59:51;21.43;;;17.07;;
66927;SDS011;59882;45.624;11.698;2023-06-10T06:02:17;23.10;;;18.35;;
66927;SDS011;59882;45.624;11.698;2023-06-10T06:04:42;20.13;;;17.93;;
66927;SDS011;59882;45.624;11.698;2023-06-10T06:07:08;22.48;;;18.40;;
66927;SDS011;59882;45.624;11.698;2023-06-10T06:09:34;20.07;;;17.97;;
66927;SDS011;59882;45.624;11.698;2023-06-10T06:11:59;19.75;;;16.67;;
66927;SDS011;59882;45.624;11.698;2023-06-10T06:14:25;20.77;;;17.53;;
66927;SDS011;59882;45.624;11.698;2023-06-10T06:16:50;23.17;;;18.57;;
66927;SDS011;59882;45.624;11.698;2023-06-10T06:19:16;22.67;;;17.95;;
66927;SDS011;59882;45.624;11.698;2023-06-10T06:21:42;20.43;;;17.57;;
66927;SDS011;59882;45.624;11.698;2023-06-10T06:24:07;18.13;;;14.07;;
66927;SDS011;59882;45.624;11.698;2023-06-10T06:26:33;15.47;;;13.87;;
66927;SDS011;59882;45.624;11.698;2023-06-10T06:28:59;17.03;;;15.23;;
66927;SDS011;59882;45.624;11.698;2023-06-10T06:31:24;17.08;;;15.27;;
66927;SDS011;59882;45.624;11.698;2023-06-10T06:33:50;18.07;;;16.13;;
66927;SDS011;59882;45.624;11.698;2023-06-10T06:36:15;20.52;;;18.40;;
66927;SDS011;59882;45.624;11.698;2023-06-10T06:38:41;20.03;;;17.93;;
66927;SDS011;59882;45.624;11.698;2023-06-10T06:41:07;21.43;;;18.90;;
66927;SDS011;59882;45.624;11.698;2023-06-10T06:43:32;22.00;;;19.33;;
66927;SDS011;59882;45.624;11.698;2023-06-10T06:45:58;21.02;;;18.83;;
66927;SDS011;59882;45.624;11.698;2023-06-10T06:48:24;25.03;;;22.10;;
66927;SDS011;59882;45.624;11.698;2023-06-10T06:50:49;27.10;;;22.47;;
66927;SDS011;59882;45.624;11.698;2023-06-10T06:53:15;23.57;;;20.73;;
66927;SDS011;59882;45.624;11.698;2023-06-10T06:55:41;28.07;;;21.80;;
66927;SDS011;59882;45.624;11.698;2023-06-10T06:58:06;20.05;;;18.05;;
66927;SDS011;59882;45.624;11.698;2023-06-10T07:00:32;25.23;;;22.17;;
66927;SDS011;59882;45.624;11.698;2023-06-10T07:02:58;26.45;;;23.58;;
66927;SDS011;59882;45.624;11.698;2023-06-10T07:05:24;24.02;;;21.50;;
66927;SDS011;59882;45.624;11.698;2023-06-10T07:07:53;24.50;;;21.90;;
66927;SDS011;59882;45.624;11.698;2023-06-10T07:10:21;23.45;;;20.98;;
66927;SDS011;59882;45.624;11.698;2023-06-10T07:12:48;23.65;;;20.35;;
66927;SDS011;59882;45.624;11.698;2023-06-10T07:15:14;23.70;;;21.30;;
66927;SDS011;59882;45.624;11.698;2023-06-10T07:17:40;24.80;;;22.20;;
66927;SDS011;59882;45.624;11.698;2023-06-10T07:20:06;26.13;;;23.42;;
66927;SDS011;59882;45.624;11.698;2023-06-10T07:22:32;25.70;;;20.83;;
66927;SDS011;59882;45.624;11.698;2023-06-10T07:24:58;25.20;;;22.57;;
66927;SDS011;59882;45.624;11.698;2023-06-10T07:27:23;24.50;;;21.93;;
66927;SDS011;59882;45.624;11.698;2023-06-10T07:29:50;21.53;;;19.00;;
66927;SDS011;59882;45.624;11.698;2023-06-10T07:32:15;23.17;;;19.73;;
66927;SDS011;59882;45.624;11.698;2023-06-10T07:34:41;24.53;;;21.90;;
66927;SDS011;59882;45.624;11.698;2023-06-10T07:37:07;24.23;;;20.27;;
66927;SDS011;59882;45.624;11.698;2023-06-10T07:39:33;20.88;;;18.67;;
66927;SDS011;59882;45.624;11.698;2023-06-10T07:41:59;21.47;;;19.27;;
66927;SDS011;59882;45.624;11.698;2023-06-10T07:44:25;21.02;;;18.83;;
66927;SDS011;59882;45.624;11.698;2023-06-10T07:46:51;20.87;;;18.73;;
66927;SDS011;59882;45.624;11.698;2023-06-10T07:49:17;20.73;;;18.63;;
66927;SDS011;59882;45.624;11.698;2023-06-10T07:51:42;20.47;;;18.20;;
66927;SDS011;59882;45.624;11.698;2023-06-10T07:54:08;20.88;;;18.58;;
66927;SDS011;59882;45.624;11.698;2023-06-10T07:56:33;16.07;;;14.37;;
66927;SDS011;59882;45.624;11.698;2023-06-10T07:58:59;18.58;;;16.08;;
66927;SDS011;59882;45.624;11.698;2023-06-10T08:01:25;19.67;;;17.17;;
66927;SDS011;59882;45.624;11.698;2023-06-10T08:03:50;19.40;;;17.27;;
66927;SDS011;59882;45.624;11.698;2023-06-10T08:06:16;19.30;;;17.20;;
66927;SDS011;59882;45.624;11.698;2023-06-10T08:08:42;17.20;;;15.40;;
66927;SDS011;59882;45.624;11.698;2023-06-10T08:11:09;24.52;;;17.60;;
66927;SDS011;59882;45.624;11.698;2023-06-10T08:13:36;19.03;;;15.43;;
66927;SDS011;59882;45.624;11.698;2023-06-10T08:16:02;17.95;;;15.38;;
66927;SDS011;59882;45.624;11.698;2023-06-10T08:18:28;16.05;;;14.43;;
66927;SDS011;59882;45.624;11.698;2023-06-10T08:20:54;15.40;;;13.80;;
66927;SDS011;59882;45.624;11.698;2023-06-10T08:23:20;19.13;;;14.90;;
66927;SDS011;59882;45.624;11.698;2023-06-10T08:25:45;16.50;;;13.60;;
66927;SDS011;59882;45.624;11.698;2023-06-10T08:28:11;18.27;;;14.37;;
66927;SDS011;59882;45.624;11.698;2023-06-10T08:30:37;17.90;;;16.03;;
66927;SDS011;59882;45.624;11.698;2023-06-10T08:33:02;15.98;;;14.38;;
66927;SDS011;59882;45.624;11.698;2023-06-10T08:35:28;16.02;;;13.68;;
66927;SDS011;59882;45.624;11.698;2023-06-10T08:37:54;14.63;;;12.27;;
66927;SDS011;59882;45.624;11.698;2023-06-10T08:40:19;16.10;;;13.73;;
66927;SDS011;59882;45.624;11.698;2023-06-10T08:42:48;16.00;;;13.37;;
66927;SDS011;59882;45.624;11.698;2023-06-10T08:45:30;15.38;;;13.20;;
66927;SDS011;59882;45.624;11.698;2023-06-10T08:48:00;16.65;;;14.10;;
66927;SDS011;59882;45.624;11.698;2023-06-10T08:50:37;14.23;;;11.52;;
66927;SDS011;59882;45.624;11.698;2023-06-10T08:53:06;15.48;;;12.05;;
66927;SDS011;59882;45.624;11.698;2023-06-10T08:55:33;13.27;;;10.50;;
66927;SDS011;59882;45.624;11.698;2023-06-10T08:58:03;13.90;;;10.27;;
66927;SDS011;59882;45.624;11.698;2023-06-10T09:00:29;15.35;;;10.77;;
66927;SDS011;59882;45.624;11.698;2023-06-10T09:02:56;21.10;;;15.15;;
66927;SDS011;59882;45.624;11.698;2023-06-10T09:05:23;12.40;;;11.10;;
66927;SDS011;59882;45.624;11.698;2023-06-10T09:07:49;13.37;;;10.83;;
66927;SDS011;59882;45.624;11.698;2023-06-10T09:10:17;15.30;;;12.45;;
66927;SDS011;59882;45.624;11.698;2023-06-10T09:12:43;12.18;;;10.70;;
66927;SDS011;59882;45.624;11.698;2023-06-10T09:15:09;11.80;;;9.55;;
66927;SDS011;59882;45.624;11.698;2023-06-10T09:17:37;15.43;;;11.10;;
66927;SDS011;59882;45.624;11.698;2023-06-10T09:20:05;13.93;;;12.33;;
66927;SDS011;59882;45.624;11.698;2023-06-10T09:22:32;15.38;;;12.15;;
66927;SDS011;59882;45.624;11.698;2023-06-10T09:25:01;16.38;;;13.07;;
66927;SDS011;59882;45.624;11.698;2023-06-10T09:27:32;18.77;;;16.15;;
66927;SDS011;59882;45.624;11.698;2023-06-10T09:29:58;16.37;;;14.07;;
66927;SDS011;59882;45.624;11.698;2023-06-10T09:32:24;14.77;;;13.10;;
66927;SDS011;59882;45.624;11.698;2023-06-10T09:34:50;17.23;;;15.00;;
66927;SDS011;59882;45.624;11.698;2023-06-10T09:37:25;15.85;;;11.38;;
66927;SDS011;59882;45.624;11.698;2023-06-10T09:40:03;16.30;;;13.00;;
66927;SDS011;59882;45.624;11.698;2023-06-10T09:42:34;18.00;;;14.77;;
66927;SDS011;59882;45.624;11.698;2023-06-10T09:45:00;17.65;;;12.80;;
66927;SDS011;59882;45.624;11.698;2023-06-10T09:47:30;20.65;;;14.52;;
66927;SDS011;59882;45.624;11.698;2023-06-10T09:49:55;17.13;;;14.30;;
66927;SDS011;59882;45.624;11.698;2023-06-10T09:52:23;18.70;;;14.45;;
66927;SDS011;59882;45.624;11.698;2023-06-10T09:54:51;15.37;;;12.90;;
66927;SDS011;59882;45.624;11.698;2023-06-10T09:57:18;23.85;;;16.58;;
66927;SDS011;59882;45.624;11.698;2023-06-10T09:59:44;17.80;;;14.55;;
66927;SDS011;59882;45.624;11.698;2023-06-10T10:02:17;21.65;;;16.95;;
66927;SDS011;59882;45.624;11.698;2023-06-10T10:04:46;26.15;;;18.15;;
66927;SDS011;59882;45.624;11.698;2023-06-10T10:07:11;22.13;;;18.73;;
66927;SDS011;59882;45.624;11.698;2023-06-10T10:09:38;21.65;;;16.40;;
66927;SDS011;59882;45.624;11.698;2023-06-10T10:12:06;22.48;;;20.20;;
66927;SDS011;59882;45.624;11.698;2023-06-10T10:14:38;27.33;;;19.48;;
66927;SDS011;59882;45.624;11.698;2023-06-10T10:17:07;25.83;;;21.23;;
66927;SDS011;59882;45.624;11.698;2023-06-10T10:19:53;21.10;;;18.90;;
66927;SDS011;59882;45.624;11.698;2023-06-10T10:22:26;24.77;;;19.45;;
66927;SDS011;59882;45.624;11.698;2023-06-10T10:24:59;46.42;;;25.27;;
66927;SDS011;59882;45.624;11.698;2023-06-10T10:27:28;32.50;;;21.60;;
66927;SDS011;59882;45.624;11.698;2023-06-10T10:29:59;24.02;;;20.92;;
66927;SDS011;59882;45.624;11.698;2023-06-10T10:32:29;23.00;;;19.47;;
66927;SDS011;59882;45.624;11.698;2023-06-10T10:35:21;38.45;;;23.13;;
66927;SDS011;59882;45.624;11.698;2023-06-10T10:37:48;25.20;;;19.40;;
66927;SDS011;59882;45.624;11.698;2023-06-10T10:40:18;24.63;;;20.42;;
66927;SDS011;59882;45.624;11.698;2023-06-10T10:42:48;24.73;;;19.60;;
66927;SDS011;59882;45.624;11.698;2023-06-10T10:45:15;22.70;;;19.87;;
66927;SDS011;59882;45.624;11.698;2023-06-10T10:47:41;24.92;;;21.73;;
66927;SDS011;59882;45.624;11.698;2023-06-10T10:50:18;24.27;;;21.70;;
66927;SDS011;59882;45.624;11.698;2023-06-10T10:55:19;23.92;;;21.38;;
66927;SDS011;59882;45.624;11.698;2023-06-10T10:57:53;23.90;;;21.23;;
66927;SDS011;59882;45.624;11.698;2023-06-10T11:00:33;22.95;;;20.10;;
66927;SDS011;59882;45.624;11.698;2023-06-10T11:05:35;29.60;;;23.13;;
66927;SDS011;59882;45.624;11.698;2023-06-10T11:08:02;25.38;;;20.80;;
66927;SDS011;59882;45.624;11.698;2023-06-10T11:10:29;23.25;;;20.75;;
66927;SDS011;59882;45.624;11.698;2023-06-10T11:12:56;25.00;;;21.00;;
66927;SDS011;59882;45.624;11.698;2023-06-10T11:15:23;25.77;;;22.88;;
66927;SDS011;59882;45.624;11.698;2023-06-10T11:18:07;24.53;;;21.93;;
66927;SDS011;59882;45.624;11.698;2023-06-10T11:31:31;24.37;;;21.47;;
66927;SDS011;59882;45.624;11.698;2023-06-10T11:34:07;22.90;;;19.83;;
66927;SDS011;59882;45.624;11.698;2023-06-10T11:36:34;24.13;;;21.53;;
66927;SDS011;59882;45.624;11.698;2023-06-10T11:39:05;22.95;;;20.60;;
66927;SDS011;59882;45.624;11.698;2023-06-10T11:41:32;25.55;;;21.30;;
66927;SDS011;59882;45.624;11.698;2023-06-10T11:44:02;24.88;;;22.25;;
66927;SDS011;59882;45.624;11.698;2023-06-10T11:46:28;25.02;;;21.17;;
66927;SDS011;59882;45.624;11.698;2023-06-10T11:48:55;21.37;;;18.33;;
66927;SDS011;59882;45.624;11.698;2023-06-10T11:51:25;27.05;;;22.27;;
66927;SDS011;59882;45.624;11.698;2023-06-10T11:53:52;27.45;;;24.00;;
66927;SDS011;59882;45.624;11.698;2023-06-10T11:56:24;25.17;;;22.08;;
66927;SDS011;59882;45.624;11.698;2023-06-10T11:58:58;26.50;;;22.70;;
66927;SDS011;59882;45.624;11.698;2023-06-10T12:01:33;28.50;;;21.85;;
66927;SDS011;59882;45.624;11.698;2023-06-10T12:04:01;30.45;;;23.38;;
66927;SDS011;59882;45.624;11.698;2023-06-10T12:06:47;24.48;;;21.88;;
66927;SDS011;59882;45.624;11.698;2023-06-10T12:09:18;25.13;;;20.60;;
66927;SDS011;59882;45.624;11.698;2023-06-10T12:11:45;26.13;;;22.23;;
66927;SDS011;59882;45.624;11.698;2023-06-10T12:14:15;24.08;;;21.58;;
66927;SDS011;59882;45.624;11.698;2023-06-10T12:16:47;25.95;;;21.63;;
66927;SDS011;59882;45.624;11.698;2023-06-10T12:19:14;32.50;;;26.13;;
66927;SDS011;59882;45.624;11.698;2023-06-10T12:21:39;26.65;;;23.25;;
66927;SDS011;59882;45.624;11.698;2023-06-10T12:24:08;26.50;;;23.63;;
66927;SDS011;59882;45.624;11.698;2023-06-10T12:31:56;26.70;;;23.17;;
66927;SDS011;59882;45.624;11.698;2023-06-10T12:37:06;31.73;;;25.77;;
66927;SDS011;59882;45.624;11.698;2023-06-10T12:39:38;26.23;;;21.98;;
66927;SDS011;59882;45.624;11.698;2023-06-10T12:42:04;27.15;;;23.38;;
66927;SDS011;59882;45.624;11.698;2023-06-10T12:44:35;28.15;;;23.67;;
66927;SDS011;59882;45.624;11.698;2023-06-10T12:47:10;29.02;;;24.98;;
66927;SDS011;59882;45.624;11.698;2023-06-10T12:49:40;24.80;;;21.37;;
66927;SDS011;59882;45.624;11.698;2023-06-10T12:52:05;22.52;;;16.73;;
66927;SDS011;59882;45.624;11.698;2023-06-10T12:54:32;17.65;;;12.93;;
66927;SDS011;59882;45.624;11.698;2023-06-10T12:56:58;15.93;;;13.00;;
66927;SDS011;59882;45.624;11.698;2023-06-10T12:59:23;13.70;;;9.07;;
66927;SDS011;59882;45.624;11.698;2023-06-10T13:01:52;10.60;;;7.80;;
66927;SDS011;59882;45.624;11.698;2023-06-10T13:04:19;9.35;;;6.78;;
66927;SDS011;59882;45.624;11.698;2023-06-10T13:06:45;12.68;;;9.98;;
66927;SDS011;59882;45.624;11.698;2023-06-10T13:09:12;14.20;;;10.30;;
66927;SDS011;59882;45.624;11.698;2023-06-10T13:11:38;18.00;;;9.70;;
66927;SDS011;59882;45.624;11.698;2023-06-10T13:14:05;13.75;;;10.65;;
66927;SDS011;59882;45.624;11.698;2023-06-10T13:16:31;15.18;;;11.15;;
66927;SDS011;59882;45.624;11.698;2023-06-10T13:18:57;12.52;;;10.15;;
66927;SDS011;59882;45.624;11.698;2023-06-10T13:21:23;14.47;;;10.27;;
66927;SDS011;59882;45.624;11.698;2023-06-10T13:23:48;15.20;;;8.93;;
66927;SDS011;59882;45.624;11.698;2023-06-10T13:26:15;9.18;;;6.38;;
66927;SDS011;59882;45.624;11.698;2023-06-10T13:28:42;14.60;;;9.07;;
66927;SDS011;59882;45.624;11.698;2023-06-10T13:31:08;13.88;;;11.18;;
66927;SDS011;59882;45.624;11.698;2023-06-10T13:33:34;17.67;;;13.63;;
66927;SDS011;59882;45.624;11.698;2023-06-10T13:35:59;17.08;;;13.35;;
66927;SDS011;59882;45.624;11.698;2023-06-10T13:38:25;17.07;;;15.13;;
66927;SDS011;59882;45.624;11.698;2023-06-10T13:40:50;18.03;;;12.70;;
66927;SDS011;59882;45.624;11.698;2023-06-10T13:43:16;16.20;;;12.67;;
66927;SDS011;59882;45.624;11.698;2023-06-10T13:45:42;19.67;;;14.10;;
66927;SDS011;59882;45.624;11.698;2023-06-10T13:48:08;15.55;;;12.57;;
66927;SDS011;59882;45.624;11.698;2023-06-10T13:50:34;18.48;;;13.93;;
66927;SDS011;59882;45.624;11.698;2023-06-10T13:52:59;14.93;;;10.43;;
66927;SDS011;59882;45.624;11.698;2023-06-10T13:55:25;17.10;;;11.48;;
66927;SDS011;59882;45.624;11.698;2023-06-10T13:57:51;15.40;;;12.20;;
66927;SDS011;59882;45.624;11.698;2023-06-10T14:00:16;14.18;;;10.32;;
66927;SDS011;59882;45.624;11.698;2023-06-10T14:02:42;17.97;;;11.93;;
66927;SDS011;59882;45.624;11.698;2023-06-10T14:05:08;15.52;;;12.30;;
66927;SDS011;59882;45.624;11.698;2023-06-10T14:07:34;13.03;;;11.47;;
66927;SDS011;59882;45.624;11.698;2023-06-10T14:10:00;14.25;;;10.45;;
66927;SDS011;59882;45.624;11.698;2023-06-10T14:12:25;13.57;;;10.10;;
66927;SDS011;59882;45.624;11.698;2023-06-10T14:14:51;13.73;;;11.23;;
66927;SDS011;59882;45.624;11.698;2023-06-10T14:17:17;15.52;;;10.50;;
66927;SDS011;59882;45.624;11.698;2023-06-10T14:19:43;14.20;;;9.57;;
66927;SDS011;59882;45.624;11.698;2023-06-10T14:22:08;10.47;;;8.67;;
66927;SDS011;59882;45.624;11.698;2023-06-10T14:24:34;13.50;;;10.33;;
66927;SDS011;59882;45.624;11.698;2023-06-10T14:27:01;11.90;;;9.23;;
66927;SDS011;59882;45.624;11.698;2023-06-10T14:29:27;13.27;;;8.47;;
66927;SDS011;59882;45.624;11.698;2023-06-10T14:31:54;10.20;;;8.90;;
66927;SDS011;59882;45.624;11.698;2023-06-10T14:34:20;13.00;;;7.47;;